KTN - Ketchikan Intl

Pirep is a free, collaborative database of all public and private airports located within the United States. All pilots are welcome to contribute, edit, and improve any airport they have local knowledge about, no registration required.
Are you familiar with this airport? Help out other pilots by adding your local knowledge.
Uploaded photos will be licensed under a CC BY-SA 4.0 license. Please only upload photos you have the rights to use.
Tags
Public
Undocu­mented
METAR / TAF
Webcam
Edit Tags
Food
Camping
Lodging
Car Rental
Bicycles
Swimming
Golfing
Fishing
Hot Springs
Museum
Flying Clubs
Airpark
Upcoming Events
No upcoming events. Is anything happening here soon?
*
*
*

Where exactly on/near the airport is this event taking place?

Is there a webpage with more information for this event?

Who should be contacted for more information?

What is this event all about?

Repeat every
Description
Transient Parking
Fuel Location
Landing & Tie-down Fees
Crew Car Availability
Flying Clubs
WiFi Access
Airport Statistics
Location: Ketchikan, AK
Elevation: 92ft
Sectional: Ketchikan
Activation date: Apr 1973
Fuel: 100LL, A (prices)
Runway WNW/ESE: 9,500ft
Runway 11/29: 7,500ft
Access: Open to the public
Current Weather — VFR
  • Weather data is strictly informational and not for flight planning purposes.
  • METAR
    2024-05-29 08:53:00 AKDT
    Ceiling Wind Temperature Dewpoint Weather Visbility
    4,900ft 110° @ 10kt 50°F 41°F N/A 10SM
    Clouds: Scattered @ 2,800ft, Broken @ 4,900ft
    Raw: PAKT 291653Z 11010KT 10SM SCT028 BKN049 10/05 A3016 RMK HARBOR WIND 10010KT
  • TAF
    2024-05-29 10:00:00 AKDT – 2024-05-29 12:00:00 AKDT
    Ceiling Wind Weather Visbility
    5,000ft 130° @ 9kt N/A 6SM
    Clouds: Broken @ 5,000ft
    Raw: PAKT 291726Z 2918/3018 13009KT P6SM BKN050 FM292000 14010KT P6SM VCSH SCT025 OVC050 TEMPO 2921/3001 -SHRA FM300500 15003KT P6SM OVC050 FM301200 14004KT P6SM -SHRA SCT030 OVC040 AMD LTD TO CLD VIS AND WIND 3006/3015
  • TAF
    2024-05-29 12:00:00 AKDT – 2024-05-29 21:00:00 AKDT
    Ceiling Wind Weather Visbility
    5,000ft 140° @ 10kt Showers in vicinity 6SM
    Clouds: Scattered @ 2,500ft, Overcast @ 5,000ft
    Raw: PAKT 291726Z 2918/3018 13009KT P6SM BKN050 FM292000 14010KT P6SM VCSH SCT025 OVC050 TEMPO 2921/3001 -SHRA FM300500 15003KT P6SM OVC050 FM301200 14004KT P6SM -SHRA SCT030 OVC040 AMD LTD TO CLD VIS AND WIND 3006/3015
  • TAF
    2024-05-29 13:00:00 AKDT – 2024-05-29 17:00:00 AKDT
    Ceiling Wind Weather Visbility
    Sky clear ° @ kt Light rain showers SM
    Raw: PAKT 291726Z 2918/3018 13009KT P6SM BKN050 FM292000 14010KT P6SM VCSH SCT025 OVC050 TEMPO 2921/3001 -SHRA FM300500 15003KT P6SM OVC050 FM301200 14004KT P6SM -SHRA SCT030 OVC040 AMD LTD TO CLD VIS AND WIND 3006/3015
  • TAF
    2024-05-29 21:00:00 AKDT – 2024-05-30 04:00:00 AKDT
    Ceiling Wind Weather Visbility
    5,000ft 150° @ 3kt N/A 6SM
    Clouds: Overcast @ 5,000ft
    Raw: PAKT 291726Z 2918/3018 13009KT P6SM BKN050 FM292000 14010KT P6SM VCSH SCT025 OVC050 TEMPO 2921/3001 -SHRA FM300500 15003KT P6SM OVC050 FM301200 14004KT P6SM -SHRA SCT030 OVC040 AMD LTD TO CLD VIS AND WIND 3006/3015
  • TAF
    2024-05-30 04:00:00 AKDT – 2024-05-30 10:00:00 AKDT
    Ceiling Wind Weather Visbility
    4,000ft 140° @ 4kt Light rain showers 6SM
    Clouds: Scattered @ 3,000ft, Overcast @ 4,000ft
    Raw: PAKT 291726Z 2918/3018 13009KT P6SM BKN050 FM292000 14010KT P6SM VCSH SCT025 OVC050 TEMPO 2921/3001 -SHRA FM300500 15003KT P6SM OVC050 FM301200 14004KT P6SM -SHRA SCT030 OVC040 AMD LTD TO CLD VIS AND WIND 3006/3015
Click/tap to add an annotation marker to the map
Direct links to live image URLs will be displayed inline on this page. URLs to separate webpages will be linked to.
URL:
Direct links to live image URLs will be displayed inline on this page. URLs to separate webpages will be linked to.
URL:
Remarks
  • When ktn fss clsd on consly.
  • Acr ops more than 30 pax na in excess of 15 min bfr or aft sked arr or dep wo ppr with amgr & cfm arff svc avbl bfr ldg or tkof.
  • Trrn causes turb on arr & dep routes.
  • Alert: spl atc rules part 93 & std vfr arr & dep proc & pat info - see reg notice.
  • Birds on & invof arpt.
Comments
Leave a comment What was your experience like at this airport?